Terminal Aerodrome Forecast
Issued by NWS

Home | Current Version | Previous Version | Text Only | Print | Product List | Glossary On
Versions: 1 2 3 4 5 6 7 8 9 10 11 12 13 14 15 16 17
218
FTUS44 KTSA 160538
TAFXNA
TAF
KXNA 160538Z 1606/1706 35015G23KT P6SM SCT030 OVC150
     FM160900 34014G20KT P6SM SCT030
     FM161600 33012KT P6SM SKC
     FM170000 34007KT P6SM SKC=

USA.gov is the U.S. government's official web portal to all federal, state and local government web resources and services.